Scheller, Illinois
Current Conditions -  °F | °C
As of 12:35 AM on Monday 26 Jan 2015 (Local Time) from KMVN Reporting Station
Overcast Overcast  
Wind Chill: 25°   Ceiling: 1400
Heat Index: 32°   Visibility: 10mi
Dew Point: 25°   Wind: 8mph
Humidity: 75%   Direction: 360°N
Pressure: 29.95"   Gusts: 16mph
Location:  38.19°N, 89.09°W
Report Text: KMVN 260635Z AUTO 36007G14KT 320V020 10SM OVC014 00/M04 A2995 RMK AO1
Loading
Personal Weather Stations






























Interactive Weather Map New forecast layout! Learn more

10-Day Weather Forecast

Advertisements
Track Severe Weather on mobile